createdAt,value
2022-11-04T00:02:05.398Z,11.23
2022-11-04T00:04:34.141Z,11.10
2022-11-04T00:07:23.484Z,10.20
2022-11-04T00:09:51.435Z,12.05
2022-11-04T00:12:27.254Z,11.48
2022-11-04T00:15:15.497Z,14.05
2022-11-04T00:17:42.392Z,13.77
2022-11-04T00:20:28.075Z,10.77
2022-11-04T00:23:14.828Z,13.20
2022-11-04T00:26:00.321Z,13.30
2022-11-04T00:28:54.327Z,14.18
2022-11-04T00:31:39.850Z,15.32
2022-11-04T00:34:07.933Z,14.80
2022-11-04T00:36:35.901Z,15.60
2022-11-04T00:39:05.203Z,16.27
2022-11-04T00:41:33.073Z,15.35
2022-11-04T00:44:03.122Z,18.38
2022-11-04T00:46:33.825Z,16.35
2022-11-04T00:49:02.183Z,17.85
2022-11-04T00:51:30.351Z,20.17
2022-11-04T00:53:59.083Z,18.30
2022-11-04T00:56:28.373Z,17.50
2022-11-04T00:58:56.588Z,17.38
2022-11-04T01:01:24.548Z,15.40
2022-11-04T01:03:54.246Z,17.13
2022-11-04T01:06:24.199Z,16.85
2022-11-04T01:08:56.847Z,15.88
2022-11-04T01:11:25.240Z,14.20
2022-11-04T01:13:54.813Z,14.95
2022-11-04T01:16:23.505Z,10.18
2022-11-04T01:18:51.685Z,11.70
2022-11-04T01:21:20.712Z,10.80
2022-11-04T01:23:49.004Z,9.05
2022-11-04T01:26:19.015Z,8.13
2022-11-04T01:28:47.569Z,6.05
2022-11-04T01:31:18.323Z,6.03
2022-11-04T01:33:46.277Z,7.70
2022-11-04T01:36:14.555Z,7.15
2022-11-04T01:38:42.757Z,7.35
2022-11-04T01:41:17.665Z,10.15
2022-11-04T01:43:49.473Z,11.30
2022-11-04T01:46:32.809Z,9.98
2022-11-04T01:49:05.454Z,13.80
2022-11-04T01:51:36.613Z,13.00
2022-11-04T01:54:07.183Z,13.60
2022-11-04T01:56:35.690Z,14.15
2022-11-04T01:59:07.914Z,12.50
2022-11-04T02:01:37.791Z,13.07
2022-11-04T02:04:20.953Z,10.55
2022-11-04T02:06:49.768Z,11.63
2022-11-04T02:09:19.368Z,13.15
2022-11-04T02:12:04.764Z,13.73
2022-11-04T02:14:33.904Z,13.80
2022-11-04T02:17:11.568Z,11.65
2022-11-04T02:20:02.689Z,12.52
2022-11-04T02:22:53.933Z,13.90
2022-11-04T02:25:41.921Z,14.27
2022-11-04T02:28:27.925Z,16.65
2022-11-04T02:31:04.315Z,17.33
2022-11-04T02:33:40.319Z,21.02
2022-11-04T02:36:16.074Z,22.65
2022-11-04T02:38:51.125Z,21.70
2022-11-04T02:41:27.437Z,21.63
2022-11-04T02:44:05.767Z,21.77
2022-11-04T02:46:38.921Z,20.08
2022-11-04T02:49:11.980Z,22.63
2022-11-04T02:51:45.866Z,22.02
2022-11-04T02:54:18.078Z,21.70
2022-11-04T02:56:50.829Z,22.42
2022-11-04T02:59:24.134Z,23.13
2022-11-04T03:01:55.370Z,24.00
2022-11-04T03:04:29.373Z,23.08
2022-11-04T03:07:00.093Z,24.17
2022-11-04T03:09:30.067Z,25.20
2022-11-04T03:12:03.432Z,23.67
2022-11-04T03:14:36.947Z,26.00
2022-11-04T03:17:09.397Z,26.48
2022-11-04T03:22:12.616Z,27.77
2022-11-04T03:24:41.524Z,28.95
2022-11-04T03:27:19.243Z,29.60
2022-11-04T03:29:53.984Z,29.08
2022-11-04T03:32:29.378Z,29.02
2022-11-04T03:34:57.469Z,30.13
2022-11-04T03:37:25.417Z,31.77
2022-11-04T03:39:53.297Z,30.65
2022-11-04T03:42:22.718Z,31.95
2022-11-04T03:44:52.386Z,30.60
2022-11-04T03:47:21.879Z,29.25
2022-11-04T03:49:53.430Z,29.23
2022-11-04T03:52:22.016Z,27.97
2022-11-04T03:54:50.112Z,29.67
2022-11-04T03:57:40.732Z,31.10
2022-11-04T04:00:12.641Z,31.30
2022-11-04T04:02:56.707Z,29.58
2022-11-04T04:05:31.833Z,28.15
2022-11-04T04:08:13.314Z,25.90
2022-11-04T04:10:48.942Z,27.90
2022-11-04T04:13:26.274Z,28.23
2022-11-04T04:15:59.990Z,26.60
2022-11-04T04:18:34.974Z,24.30
2022-11-04T04:21:08.481Z,24.45
2022-11-04T04:23:55.447Z,22.15
2022-11-04T04:26:43.048Z,19.40
2022-11-04T04:29:11.945Z,21.58
2022-11-04T04:31:50.595Z,20.30
2022-11-04T04:34:20.370Z,20.52
2022-11-04T04:36:53.712Z,19.60
2022-11-04T04:39:51.742Z,18.58
2022-11-04T04:42:38.201Z,19.63
2022-11-04T04:45:07.630Z,20.52
2022-11-04T04:47:43.512Z,21.23
2022-11-04T04:50:14.242Z,20.08
2022-11-04T04:52:46.097Z,20.20
2022-11-04T04:55:15.341Z,19.50
2022-11-04T04:57:43.441Z,19.02
2022-11-04T05:00:15.664Z,19.85
2022-11-04T05:02:43.835Z,21.10
2022-11-04T05:05:13.301Z,21.25
2022-11-04T05:07:41.328Z,19.45
2022-11-04T05:10:13.592Z,18.80
2022-11-04T05:13:00.123Z,19.52
2022-11-04T05:15:29.199Z,21.20
2022-11-04T05:17:58.514Z,19.38
2022-11-04T05:20:26.599Z,20.05
2022-11-04T05:22:56.067Z,19.75
2022-11-04T05:25:25.379Z,20.38
2022-11-04T05:27:53.304Z,17.35
2022-11-04T05:30:21.585Z,17.95
2022-11-04T05:32:49.457Z,19.80
2022-11-04T05:35:17.543Z,18.52
2022-11-04T05:37:45.772Z,19.17
2022-11-04T05:40:13.952Z,21.63
2022-11-04T05:42:43.168Z,22.30
2022-11-04T05:45:11.668Z,22.00
2022-11-04T05:47:39.628Z,22.25
2022-11-04T05:50:08.097Z,20.40
2022-11-04T05:52:36.005Z,20.50
2022-11-04T05:55:04.074Z,20.80
2022-11-04T05:57:31.960Z,22.35
2022-11-04T06:00:01.307Z,21.15
2022-11-04T06:02:29.294Z,20.52
2022-11-04T06:04:57.256Z,19.88
2022-11-04T06:07:25.104Z,19.10
2022-11-04T06:09:52.989Z,20.75
2022-11-04T06:12:20.849Z,20.92
2022-11-04T06:14:48.909Z,23.25
2022-11-04T06:17:20.186Z,23.02
2022-11-04T06:19:48.133Z,24.00
2022-11-04T06:22:17.580Z,22.23
2022-11-04T06:24:45.514Z,22.33
2022-11-04T06:27:13.999Z,20.67
2022-11-04T06:29:42.153Z,20.95
2022-11-04T06:32:10.819Z,19.83
2022-11-04T06:34:40.268Z,20.75
2022-11-04T06:37:08.421Z,20.27
2022-11-04T06:39:36.507Z,25.08
2022-11-04T06:42:04.903Z,24.35
2022-11-04T06:44:34.351Z,24.77
2022-11-04T06:47:02.841Z,24.92
2022-11-04T06:49:30.686Z,26.45
2022-11-04T06:52:01.220Z,25.35
2022-11-04T06:54:29.115Z,26.40
2022-11-04T06:56:57.002Z,26.40
2022-11-04T06:59:25.028Z,28.02
2022-11-04T07:01:53.262Z,30.90
2022-11-04T07:04:21.291Z,38.38
2022-11-04T07:06:49.346Z,41.15
2022-11-04T07:09:18.584Z,47.72
2022-11-04T07:11:46.752Z,45.35
2022-11-04T07:14:15.258Z,46.72
2022-11-04T07:16:43.128Z,49.75
2022-11-04T07:19:11.089Z,52.70
2022-11-04T07:21:38.991Z,48.03
2022-11-04T07:24:07.715Z,51.42
2022-11-04T07:26:36.936Z,51.63
2022-11-04T07:29:06.655Z,52.35
2022-11-04T07:31:34.576Z,53.05
2022-11-04T07:34:03.078Z,51.10
2022-11-04T07:36:31.453Z,51.13
2022-11-04T07:38:59.357Z,49.40
2022-11-04T07:41:27.260Z,49.72
2022-11-04T07:43:58.775Z,46.97
2022-11-04T07:46:26.741Z,49.45
2022-11-04T07:48:57.559Z,47.55
2022-11-04T07:51:25.924Z,45.65
2022-11-04T07:53:53.884Z,43.72
2022-11-04T07:56:23.956Z,42.63
2022-11-04T07:58:52.528Z,41.65
2022-11-04T08:01:23.802Z,40.30
2022-11-04T08:03:52.353Z,38.42
2022-11-04T08:06:22.091Z,37.70
2022-11-04T08:08:50.138Z,40.65
2022-11-04T08:11:20.684Z,41.22
2022-11-04T08:13:48.942Z,39.92
2022-11-04T08:16:19.080Z,39.05
2022-11-04T08:18:49.536Z,40.60
2022-11-04T08:21:17.835Z,45.22
2022-11-04T08:23:46.172Z,41.97
2022-11-04T08:26:16.657Z,37.05
2022-11-04T08:28:44.940Z,37.83
2022-11-04T08:31:16.648Z,40.30
2022-11-04T08:33:45.294Z,38.47
2022-11-04T08:36:17.724Z,36.47
2022-11-04T08:41:15.786Z,35.65
2022-11-04T08:43:43.757Z,32.88
2022-11-04T08:46:12.459Z,33.35
2022-11-04T08:48:41.415Z,35.40
2022-11-04T08:51:15.617Z,27.38
2022-11-04T08:53:44.004Z,30.42
2022-11-04T08:56:13.957Z,32.88
2022-11-04T08:58:42.418Z,19.13
2022-11-04T09:01:11.158Z,15.73
2022-11-04T09:03:39.943Z,16.30
2022-11-04T09:06:09.253Z,18.90
2022-11-04T09:08:39.337Z,20.38
2022-11-04T09:11:08.450Z,23.20
2022-11-04T09:13:39.594Z,16.65
2022-11-04T09:16:09.558Z,19.77
2022-11-04T09:18:37.485Z,23.23
2022-11-04T09:21:07.096Z,25.13
2022-11-04T09:23:34.992Z,14.93
2022-11-04T09:26:07.800Z,14.30
2022-11-04T09:28:35.673Z,14.60
2022-11-04T09:31:06.984Z,13.57
2022-11-04T09:33:34.904Z,13.80
2022-11-04T09:36:02.929Z,15.38
2022-11-04T09:38:31.089Z,16.50
2022-11-04T09:41:00.504Z,18.95
2022-11-04T09:43:38.616Z,18.70
2022-11-04T09:46:06.949Z,15.30
2022-11-04T09:48:40.052Z,14.85
2022-11-04T09:51:16.633Z,15.70
2022-11-04T09:53:58.744Z,13.90
2022-11-04T09:56:31.374Z,13.40
2022-11-04T09:59:00.692Z,11.60
2022-11-04T10:01:34.651Z,9.13
2022-11-04T10:04:18.299Z,10.23
2022-11-04T10:07:06.003Z,11.63
2022-11-04T10:09:48.183Z,10.32
2022-11-04T10:12:31.155Z,11.18
2022-11-04T10:15:34.193Z,12.25
2022-11-04T10:18:15.371Z,12.32
2022-11-04T10:20:53.732Z,10.88
2022-11-04T10:23:23.970Z,11.88
2022-11-04T10:25:59.444Z,9.10
2022-11-04T10:28:36.006Z,7.40
2022-11-04T10:31:06.592Z,8.43
2022-11-04T10:33:38.727Z,7.82
2022-11-04T10:36:08.673Z,9.27
2022-11-04T10:38:40.546Z,8.32
2022-11-04T10:43:44.720Z,8.98
2022-11-04T10:46:34.235Z,10.02
2022-11-04T10:49:21.034Z,9.93
2022-11-04T10:51:49.231Z,9.60
2022-11-04T10:54:17.219Z,9.60
2022-11-04T10:56:51.384Z,9.35
2022-11-04T10:59:25.666Z,8.07
2022-11-04T11:01:57.399Z,9.10
2022-11-04T11:04:28.478Z,11.00
2022-11-04T11:06:58.634Z,9.77
2022-11-04T11:09:29.941Z,6.55
2022-11-04T11:12:01.895Z,7.20
2022-11-04T11:14:35.709Z,9.20
2022-11-04T11:17:22.557Z,9.38
2022-11-04T11:19:55.848Z,7.00
2022-11-04T11:22:33.031Z,7.25
2022-11-04T11:25:23.183Z,8.10
2022-11-04T11:27:54.245Z,9.38
2022-11-04T11:30:31.910Z,10.32
2022-11-04T11:33:03.937Z,3.78
2022-11-04T11:35:41.434Z,2.33
2022-11-04T11:38:19.949Z,2.58
2022-11-04T11:41:10.870Z,2.42
2022-11-04T11:43:39.673Z,2.50
2022-11-04T11:46:08.026Z,2.80
2022-11-04T11:48:42.863Z,3.00
2022-11-04T11:51:14.008Z,3.00
2022-11-04T11:53:58.688Z,3.08
2022-11-04T11:56:58.754Z,2.97
2022-11-04T12:02:34.875Z,3.58
2022-11-04T12:10:56.067Z,2.60
2022-11-04T12:13:29.089Z,2.85
2022-11-04T12:16:18.388Z,3.20
2022-11-04T12:19:26.880Z,3.00
2022-11-04T12:22:03.739Z,3.67
2022-11-04T12:24:41.132Z,2.85
2022-11-04T12:27:18.032Z,3.40
2022-11-04T12:30:03.263Z,3.88
2022-11-04T12:32:41.295Z,2.78
2022-11-04T12:35:23.487Z,3.03
2022-11-04T12:38:04.063Z,2.97
2022-11-04T12:40:41.545Z,2.65
2022-11-04T12:43:21.447Z,2.42
2022-11-04T12:46:01.068Z,1.77
2022-11-04T12:48:57.396Z,2.08
2022-11-04T12:51:38.090Z,1.63
2022-11-04T12:54:32.915Z,1.10
2022-11-04T12:57:14.320Z,0.90
2022-11-04T12:59:54.580Z,1.08
2022-11-04T13:02:27.075Z,1.10
2022-11-04T13:05:03.141Z,0.98
2022-11-04T13:07:34.661Z,1.58
2022-11-04T13:10:07.645Z,1.43
2022-11-04T13:12:39.194Z,2.20
2022-11-04T13:15:16.540Z,2.15
2022-11-04T13:17:47.110Z,2.50
2022-11-04T13:20:23.039Z,4.18
2022-11-04T13:22:57.775Z,1.83
2022-11-04T13:25:34.843Z,2.72
2022-11-04T13:28:04.253Z,2.85
2022-11-04T13:30:38.495Z,3.13
2022-11-04T13:33:16.993Z,3.50
2022-11-04T13:35:56.029Z,2.78
2022-11-04T13:38:29.105Z,3.90
2022-11-04T13:41:16.158Z,3.92
2022-11-04T13:43:50.391Z,3.42
2022-11-04T13:46:24.807Z,4.03
2022-11-04T13:49:02.263Z,3.90
2022-11-04T13:51:40.562Z,4.25
2022-11-04T13:54:24.371Z,3.75
2022-11-04T13:57:05.613Z,3.75
2022-11-04T13:59:39.999Z,4.05
2022-11-04T14:02:42.397Z,3.63
2022-11-04T14:05:52.211Z,3.83
2022-11-04T14:08:20.489Z,4.93
2022-11-04T14:11:08.201Z,4.97
2022-11-04T14:14:02.652Z,4.72
2022-11-04T14:16:46.110Z,4.47
2022-11-04T14:19:59.452Z,4.57
2022-11-04T14:22:36.413Z,5.57
2022-11-04T14:25:21.476Z,4.53
2022-11-04T14:27:50.905Z,5.38
2022-11-04T14:30:35.353Z,3.80
2022-11-04T14:33:06.776Z,4.25
2022-11-04T14:35:35.484Z,5.17
2022-11-04T14:38:15.549Z,5.00
2022-11-04T14:40:50.867Z,5.50
2022-11-04T14:43:30.084Z,5.30
2022-11-04T14:46:02.100Z,5.20
2022-11-04T14:48:31.342Z,5.75
2022-11-04T14:50:59.670Z,6.60
2022-11-04T14:53:31.948Z,5.97
2022-11-04T14:58:34.963Z,4.57
2022-11-04T15:01:05.171Z,6.00
2022-11-04T15:06:40.352Z,5.18
2022-11-04T15:09:21.717Z,5.63
2022-11-04T15:12:07.053Z,5.82
2022-11-04T15:14:38.055Z,6.05
2022-11-04T15:17:07.794Z,5.45
2022-11-04T15:19:36.954Z,5.93
2022-11-04T15:22:07.424Z,5.55
2022-11-04T15:24:36.523Z,4.97
2022-11-04T15:27:07.249Z,5.45
2022-11-04T15:29:35.357Z,5.45
2022-11-04T15:32:06.332Z,5.90
2022-11-04T15:34:37.243Z,6.10
2022-11-04T15:37:07.043Z,6.03
2022-11-04T15:39:38.811Z,6.10
2022-11-04T15:42:29.699Z,7.00
2022-11-04T15:44:57.692Z,7.05
2022-11-04T15:47:28.481Z,7.00
2022-11-04T15:50:16.486Z,6.05
2022-11-04T15:52:51.607Z,7.70
2022-11-04T15:55:22.284Z,6.00
2022-11-04T15:57:51.737Z,6.55
2022-11-04T16:00:25.884Z,7.20
2022-11-04T16:02:56.380Z,6.82
2022-11-04T16:05:28.636Z,7.78
2022-11-04T16:08:14.825Z,7.72
2022-11-04T16:10:43.984Z,7.03
2022-11-04T16:13:23.868Z,6.65
2022-11-04T16:16:09.495Z,6.28
2022-11-04T16:18:39.834Z,5.93
2022-11-04T16:21:12.270Z,5.97
2022-11-04T16:26:13.129Z,5.60
2022-11-04T16:28:42.741Z,5.72
2022-11-04T16:31:26.285Z,5.28
2022-11-04T16:33:54.306Z,4.80
2022-11-04T16:36:34.020Z,4.57
2022-11-04T16:39:10.910Z,4.80
2022-11-04T16:41:41.216Z,4.93
2022-11-04T16:44:19.385Z,5.10
2022-11-04T16:46:47.802Z,4.90
2022-11-04T16:49:16.852Z,4.80
2022-11-04T16:51:46.627Z,5.65
2022-11-04T16:54:14.628Z,5.50
2022-11-04T16:56:42.598Z,5.22
2022-11-04T16:59:12.635Z,5.60
2022-11-04T17:01:41.870Z,5.72
2022-11-04T17:04:10.594Z,5.65
2022-11-04T17:06:39.376Z,5.78
2022-11-04T17:09:18.676Z,8.30
2022-11-04T17:11:46.870Z,4.97
2022-11-04T17:14:16.456Z,4.38
2022-11-04T17:16:44.901Z,4.25
2022-11-04T17:19:16.905Z,5.30
2022-11-04T17:21:45.856Z,6.63
2022-11-04T17:24:15.600Z,6.47
2022-11-04T17:26:43.688Z,6.65
2022-11-04T17:29:16.002Z,5.93
2022-11-04T17:31:45.366Z,7.20
2022-11-04T17:34:13.502Z,7.93
2022-11-04T17:36:41.529Z,8.40
2022-11-04T17:39:09.870Z,7.75
2022-11-04T17:41:56.893Z,6.80
2022-11-04T17:44:24.856Z,6.80
2022-11-04T17:46:53.069Z,6.05
2022-11-04T17:49:22.995Z,5.53
2022-11-04T17:51:53.831Z,5.43
2022-11-04T17:54:22.455Z,5.60
2022-11-04T17:56:52.524Z,5.75
2022-11-04T17:59:20.731Z,5.68
2022-11-04T18:01:49.286Z,5.68
2022-11-04T18:04:19.835Z,6.10
2022-11-04T18:06:47.983Z,7.43
2022-11-04T18:09:16.568Z,6.75
2022-11-04T18:12:02.996Z,6.93
2022-11-04T18:14:33.178Z,6.78
2022-11-04T18:17:01.115Z,8.35
2022-11-04T18:19:29.715Z,8.18
2022-11-04T18:21:57.666Z,9.05
2022-11-04T18:24:25.964Z,8.30
2022-11-04T18:26:54.256Z,9.45
2022-11-04T18:29:22.959Z,8.95
2022-11-04T18:31:52.236Z,8.32
2022-11-04T18:34:20.420Z,9.13
2022-11-04T18:36:49.121Z,10.15
2022-11-04T18:39:18.911Z,9.30
2022-11-04T18:41:47.526Z,8.43
2022-11-04T18:44:18.022Z,8.18
2022-11-04T18:46:46.543Z,9.60
2022-11-04T18:49:16.873Z,9.20
2022-11-04T18:51:45.230Z,8.73
2022-11-04T18:54:14.765Z,9.05
2022-11-04T18:56:43.857Z,9.55
2022-11-04T18:59:13.458Z,11.95
2022-11-04T19:01:42.340Z,13.52
2022-11-04T19:04:10.716Z,14.48
2022-11-04T19:06:44.932Z,13.20
2022-11-04T19:12:20.356Z,8.60
2022-11-04T19:14:49.219Z,6.47
2022-11-04T19:17:17.469Z,9.00
2022-11-04T19:19:45.953Z,12.60
2022-11-04T19:22:15.436Z,12.02
2022-11-04T19:24:43.789Z,12.15
2022-11-04T19:27:11.891Z,10.73
2022-11-04T19:29:39.976Z,10.68
2022-11-04T19:32:13.794Z,8.68
2022-11-04T19:34:42.198Z,8.85
2022-11-04T19:37:10.800Z,8.85
2022-11-04T19:39:40.641Z,8.70
2022-11-04T19:42:26.500Z,10.07
2022-11-04T19:44:54.412Z,10.30
2022-11-04T19:47:22.372Z,9.52
2022-11-04T19:49:50.344Z,12.00
2022-11-04T19:52:18.560Z,13.20
2022-11-04T19:54:47.995Z,13.82
2022-11-04T19:57:16.407Z,16.85
2022-11-04T19:59:44.493Z,16.48
2022-11-04T20:02:15.243Z,16.58
2022-11-04T20:04:43.397Z,18.95
2022-11-04T20:07:11.300Z,17.30
2022-11-04T20:09:39.548Z,19.58
2022-11-04T20:12:26.363Z,18.55
2022-11-04T20:14:56.149Z,18.73
2022-11-04T20:17:24.644Z,19.52
2022-11-04T20:19:52.759Z,20.00
2022-11-04T20:22:20.721Z,19.48
2022-11-04T20:24:48.584Z,19.10
2022-11-04T20:27:18.349Z,17.92
2022-11-04T20:29:46.425Z,17.45
2022-11-04T20:32:14.695Z,17.55
2022-11-04T20:34:42.688Z,16.98
2022-11-04T20:37:12.454Z,16.63
2022-11-04T20:39:40.488Z,15.93
2022-11-04T20:42:08.689Z,16.02
2022-11-04T20:44:37.979Z,16.50
2022-11-04T20:47:05.950Z,17.33
2022-11-04T20:49:33.866Z,17.42
2022-11-04T20:52:01.787Z,19.13
2022-11-04T20:54:29.739Z,17.63
2022-11-04T20:56:58.035Z,18.55
2022-11-04T20:59:25.903Z,19.10
2022-11-04T21:01:55.322Z,19.70
2022-11-04T21:04:23.374Z,20.23
2022-11-04T21:06:52.470Z,20.02
2022-11-04T21:09:22.259Z,20.50
2022-11-04T21:11:51.282Z,20.15
2022-11-04T21:14:20.283Z,20.83
2022-11-04T21:16:48.679Z,20.58
2022-11-04T21:19:19.068Z,22.42
2022-11-04T21:21:47.865Z,22.42
2022-11-04T21:24:19.702Z,21.08
2022-11-04T21:26:47.714Z,24.23
2022-11-04T21:29:19.341Z,22.35
2022-11-04T21:31:49.365Z,24.80
2022-11-04T21:34:18.761Z,24.13
2022-11-04T21:36:46.809Z,24.83
2022-11-04T21:39:14.914Z,21.40
2022-11-04T21:41:42.912Z,21.50
2022-11-04T21:44:13.484Z,20.15
2022-11-04T21:46:42.368Z,20.35
2022-11-04T21:49:12.712Z,19.70
2022-11-04T21:51:42.107Z,18.23
2022-11-04T21:54:10.344Z,19.33
2022-11-04T21:56:38.357Z,21.50
2022-11-04T21:59:06.692Z,20.73
2022-11-04T22:01:34.854Z,18.83
2022-11-04T22:04:03.626Z,19.95
2022-11-04T22:06:35.200Z,19.70
2022-11-04T22:09:07.945Z,17.90
2022-11-04T22:11:39.330Z,17.52
2022-11-04T22:14:09.300Z,18.20
2022-11-04T22:16:39.076Z,17.83
2022-11-04T22:19:10.493Z,16.80
2022-11-04T22:21:40.433Z,16.30
2022-11-04T22:24:12.435Z,16.90
2022-11-04T22:26:41.071Z,17.10
2022-11-04T22:29:09.530Z,18.42
2022-11-04T22:31:40.635Z,16.55
2022-11-04T22:34:09.887Z,17.50
2022-11-04T22:36:38.017Z,18.00
2022-11-04T22:39:10.484Z,17.92
2022-11-04T22:41:43.429Z,17.40
2022-11-04T22:44:11.640Z,18.40
2022-11-04T22:46:40.088Z,17.88
2022-11-04T22:49:08.495Z,18.10
2022-11-04T22:51:36.480Z,16.75
2022-11-04T22:54:08.241Z,17.90
2022-11-04T22:56:36.807Z,19.58
2022-11-04T22:59:06.475Z,16.90
2022-11-04T23:01:34.601Z,16.23
2022-11-04T23:04:03.064Z,17.50
2022-11-04T23:06:31.252Z,17.80
2022-11-04T23:09:00.679Z,17.52
2022-11-04T23:11:48.063Z,17.58
2022-11-04T23:14:37.131Z,16.42
2022-11-04T23:17:29.723Z,17.40
2022-11-04T23:19:57.617Z,16.98
2022-11-04T23:22:43.207Z,17.27
2022-11-04T23:25:11.739Z,16.60
2022-11-04T23:27:58.964Z,15.93
2022-11-04T23:30:30.731Z,15.30
2022-11-04T23:33:00.184Z,15.52
2022-11-04T23:35:47.073Z,14.80
2022-11-04T23:38:15.456Z,14.98
2022-11-04T23:41:04.076Z,17.58
2022-11-04T23:43:32.296Z,19.55
2022-11-04T23:46:19.420Z,17.88
2022-11-04T23:49:05.129Z,17.08
2022-11-04T23:51:50.656Z,16.58
2022-11-04T23:54:36.359Z,16.80
2022-11-04T23:57:22.628Z,16.30
